Time;durP1;ratioP1;P1;durP2;ratioP2;P2;SDS_P1;SDS_P2;PMS_P1;PMS_P2;Temp;Humidity;BMP_temperature;BMP_pressure;BME280_temperature;BME280_humidity;BME280_pressure;Samples;Min_cycle;Max_cycle;Signal;HPM_P1;HPM_P2
2021/03/21 00:00:39;;;;;;;6.43;5.38;;;;;;;1.04;49.28;97167.94;5073174;28;20036;-70
2021/03/21 00:03:06;;;;;;;9.45;5.75;;;;;;;1.01;49.78;97163.88;5073229;28;20040;-70
2021/03/21 00:05:32;;;;;;;8.30;5.40;;;;;;;1.01;49.92;97155.34;5072844;28;20416;-70
2021/03/21 00:08:03;;;;;;;7.68;6.45;;;;;;;1.03;49.90;97158.59;5072888;28;20052;-70
2021/03/21 00:10:30;;;;;;;8.55;5.90;;;;;;;1.05;49.85;97156.69;5073137;28;20037;-71
2021/03/21 00:12:57;;;;;;;7.88;5.70;;;;;;;1.08;49.91;97153.00;5073221;28;20056;-70
2021/03/21 00:15:23;;;;;;;8.57;5.95;;;;;;;1.11;49.82;97158.66;5072474;28;20056;-70
2021/03/21 00:17:50;;;;;;;8.57;5.40;;;;;;;1.13;49.95;97155.97;5073184;28;20471;-70
2021/03/21 00:20:21;;;;;;;7.07;5.20;;;;;;;1.11;49.51;97140.59;5073140;28;20036;-70
2021/03/21 00:22:47;;;;;;;6.45;5.25;;;;;;;1.06;49.33;97149.75;5073099;28;20037;-70
2021/03/21 00:25:18;;;;;;;8.15;4.97;;;;;;;1.04;49.25;97143.91;5073125;28;20029;-70
2021/03/21 00:27:45;;;;;;;6.85;5.35;;;;;;;1.01;49.52;97147.59;5072981;28;20045;-70
2021/03/21 00:30:16;;;;;;;9.27;5.30;;;;;;;0.97;49.44;97144.47;5072787;28;20057;-70
2021/03/21 00:32:42;;;;;;;7.80;4.90;;;;;;;0.98;49.49;97142.69;5072858;28;20047;-70
2021/03/21 00:35:09;;;;;;;7.10;5.00;;;;;;;0.98;49.28;97134.94;5072799;28;20405;-70
2021/03/21 00:37:38;;;;;;;6.32;4.68;;;;;;;1.01;49.64;97139.84;5072502;28;20043;-71
2021/03/21 00:40:08;;;;;;;7.78;4.95;;;;;;;1.02;49.62;97142.25;5073307;28;20472;-70
2021/03/21 00:42:35;;;;;;;6.55;4.78;;;;;;;1.05;49.58;97143.75;5072617;28;20411;-70
2021/03/21 00:45:04;;;;;;;6.60;5.05;;;;;;;1.06;49.56;97135.03;5072947;28;20040;-70
2021/03/21 00:47:30;;;;;;;8.60;4.97;;;;;;;1.07;49.65;97141.84;5072853;28;20028;-70
2021/03/21 00:49:57;;;;;;;7.25;4.88;;;;;;;1.07;49.93;97141.03;5072859;28;20044;-70
2021/03/21 00:52:23;;;;;;;9.10;6.07;;;;;;;1.09;49.89;97133.94;5071740;28;20048;-70
2021/03/21 00:54:49;;;;;;;9.05;5.50;;;;;;;1.09;49.85;97136.53;5072316;28;20049;-70
2021/03/21 00:57:15;;;;;;;6.63;5.07;;;;;;;1.08;49.97;97138.31;5074458;28;20059;-70
2021/03/21 00:59:41;;;;;;;6.20;4.88;;;;;;;1.08;49.89;97132.34;5076584;28;20039;-70
2021/03/21 01:02:09;;;;;;;8.32;5.78;;;;;;;1.10;49.79;97131.22;5076258;28;20386;-70
2021/03/21 01:04:35;;;;;;;7.10;4.95;;;;;;;1.07;49.70;97121.19;5076322;28;20372;-70
2021/03/21 01:07:02;;;;;;;5.93;4.43;;;;;;;1.06;49.79;97121.31;5076412;28;20044;-70
2021/03/21 01:09:29;;;;;;;6.78;4.70;;;;;;;1.06;49.59;97114.38;5076359;28;20043;-70
2021/03/21 01:11:55;;;;;;;7.68;4.70;;;;;;;1.00;49.57;97108.00;5076483;28;20056;-70
2021/03/21 01:14:21;;;;;;;9.75;5.00;;;;;;;0.96;49.46;97109.25;5074924;28;20436;-70
2021/03/21 01:16:50;;;;;;;7.38;4.43;;;;;;;0.96;49.64;97111.00;5076225;28;20041;-70
2021/03/21 01:19:18;;;;;;;8.75;5.22;;;;;;;0.93;49.54;97094.03;5076172;28;20039;-70
2021/03/21 01:21:45;;;;;;;7.68;4.85;;;;;;;0.87;49.42;97099.78;5076035;28;20052;-70
2021/03/21 01:24:13;;;;;;;6.30;4.65;;;;;;;0.87;49.71;97106.72;5076083;28;20044;-70
2021/03/21 01:26:40;;;;;;;5.70;4.28;;;;;;;0.87;49.79;97094.59;5076096;28;20048;-70
2021/03/21 01:29:07;;;;;;;5.47;4.28;;;;;;;0.90;49.68;97096.88;5076013;28;20041;-70
2021/03/21 01:31:33;;;;;;;6.88;4.70;;;;;;;0.90;49.65;97086.56;5075902;28;20037;-70
2021/03/21 01:33:59;;;;;;;7.05;4.55;;;;;;;0.89;49.63;97082.38;5076071;28;20032;-70
2021/03/21 01:36:30;;;;;;;6.30;4.43;;;;;;;0.90;49.87;97086.56;5075775;28;20040;-70
2021/03/21 01:38:58;;;;;;;6.57;4.38;;;;;;;0.87;49.58;97081.69;5075875;28;20036;-70
2021/03/21 01:41:30;;;;;;;5.22;4.22;;;;;;;0.86;49.80;97072.34;5075870;28;20044;-71
2021/03/21 01:43:58;;;;;;;8.57;4.68;;;;;;;0.87;49.97;97083.47;5065775;28;20401;-70
2021/03/21 01:46:39;;;;;;;6.10;4.68;;;;;;;0.88;50.27;97080.72;5075565;28;20048;-70
2021/03/21 01:49:20;;;;;;;7.43;5.05;;;;;;;0.87;50.35;97073.94;5076184;28;20044;-70
2021/03/21 01:51:48;;;;;;;8.50;5.60;;;;;;;0.90;50.04;97072.84;5075453;28;20047;-70
2021/03/21 01:54:18;;;;;;;7.22;5.05;;;;;;;0.88;50.18;97061.84;5075820;28;20033;-70
2021/03/21 01:56:45;;;;;;;8.30;5.40;;;;;;;0.83;50.01;97069.22;5075229;28;20040;-70
2021/03/21 01:59:21;;;;;;;7.38;5.07;;;;;;;0.77;50.73;97068.00;5076020;28;20393;-70
2021/03/21 02:01:49;;;;;;;7.13;5.25;;;;;;;0.76;50.42;97063.81;5075303;28;20033;-70
2021/03/21 02:04:16;;;;;;;8.25;5.18;;;;;;;0.72;50.33;97059.88;5075678;28;20495;-70
2021/03/21 02:07:08;;;;;;;8.00;5.13;;;;;;;0.72;51.25;97067.63;5075186;28;20047;-70
2021/03/21 02:09:50;;;;;;;8.30;5.60;;;;;;;0.74;51.12;97065.72;5075533;28;20032;-71
2021/03/21 02:12:49;;;;;;;9.50;5.75;;;;;;;0.75;51.41;97065.53;5065778;28;20044;-70
2021/03/21 02:15:21;;;;;;;8.70;5.93;;;;;;;0.80;50.91;97057.41;5065629;28;20461;-70
2021/03/21 02:17:47;;;;;;;6.78;4.95;;;;;;;0.79;50.74;97051.41;5073709;28;20032;-71
2021/03/21 02:20:31;;;;;;;6.53;4.85;;;;;;;0.82;51.74;97055.50;5075078;28;20037;-70
2021/03/21 02:23:06;;;;;;;7.32;5.05;;;;;;;0.85;51.15;97046.66;5074793;28;20044;-70
2021/03/21 02:25:56;;;;;;;;;;;;;;;0.87;52.06;97045.53;5075501;28;20044;-70
2021/03/21 02:28:53;;;;;;;6.97;5.15;;;;;;;0.82;51.88;97034.84;5075122;28;19916;-70
2021/03/21 02:31:35;;;;;;;7.25;5.05;;;;;;;0.76;51.91;97037.97;5069078;28;20036;-70
2021/03/21 02:34:13;;;;;;;7.30;4.95;;;;;;;0.72;51.96;97034.88;5064887;28;20028;-70
2021/03/21 02:36:45;;;;;;;6.80;5.38;;;;;;;0.71;51.80;97029.84;5074634;28;20037;-70
2021/03/21 02:39:41;;;;;;;6.72;4.45;;;;;;;0.68;51.45;97027.56;5075049;28;20048;-70
2021/03/21 02:42:13;;;;;;;7.55;5.10;;;;;;;0.65;51.46;97023.50;5072509;28;20045;-70
2021/03/21 02:44:45;;;;;;;7.15;5.28;;;;;;;0.68;51.60;97017.22;5074428;28;20038;-70
2021/03/21 02:47:21;;;;;;;7.18;5.22;;;;;;;0.73;52.39;97018.41;5074850;28;20036;-70
2021/03/21 02:49:50;;;;;;;6.70;4.93;;;;;;;0.78;51.97;97011.06;5074408;28;20040;-70
2021/03/21 02:53:03;;;;;;;7.28;5.03;;;;;;;0.86;52.44;97020.69;5073474;28;20040;-70
2021/03/21 02:55:34;;;;;;;7.85;5.38;;;;;;;0.87;51.77;97014.56;5073640;28;20040;-70
2021/03/21 02:58:06;;;;;;;7.45;5.38;;;;;;;0.89;51.58;97011.84;5074865;28;20055;-70
2021/03/21 03:00:42;;;;;;;5.32;4.75;;;;;;;0.84;51.82;97001.94;5074356;28;20052;-70
2021/03/21 03:03:11;;;;;;;7.28;5.07;;;;;;;0.83;51.76;96999.50;5074509;28;20036;-70
2021/03/21 03:05:45;;;;;;;7.57;4.90;;;;;;;0.84;52.41;96995.94;5074075;28;20044;-70
2021/03/21 03:08:21;;;;;;;;;;;;;;;0.81;52.80;96997.06;5074977;28;20043;-70
2021/03/21 03:10:49;;;;;;;6.70;5.25;;;;;;;0.76;52.13;96991.50;5063563;28;20284;-71
2021/03/21 03:13:16;;;;;;;6.57;5.10;;;;;;;0.76;52.05;96991.50;5074257;28;20051;-70
2021/03/21 03:15:43;;;;;;;9.07;5.72;;;;;;;0.77;52.42;96993.13;5073980;28;20048;-70
2021/03/21 03:18:19;;;;;;;7.70;5.25;;;;;;;0.78;53.00;96989.59;5074345;28;20044;-71
2021/03/21 03:20:52;;;;;;;6.63;5.25;;;;;;;0.78;53.19;96987.81;5073110;28;20048;-70
2021/03/21 03:23:39;;;;;;;7.97;5.55;;;;;;;0.80;53.80;96998.03;5074041;28;20047;-70
2021/03/21 03:26:23;;;;;;;9.20;5.80;;;;;;;0.81;53.64;96990.09;5073684;28;20067;-71
2021/03/21 03:28:58;;;;;;;8.27;5.85;;;;;;;0.78;53.06;96981.84;5074337;28;20040;-70
2021/03/21 03:31:32;;;;;;;9.68;5.90;;;;;;;0.79;53.02;96984.28;5074074;28;20051;-71
2021/03/21 03:33:58;;;;;;;10.40;5.35;;;;;;;0.83;52.99;96978.84;5063235;28;20400;-70
2021/03/21 03:36:25;;;;;;;10.15;5.93;;;;;;;0.85;53.03;96987.25;5073595;28;20040;-70
2021/03/21 03:38:52;;;;;;;8.05;5.75;;;;;;;0.88;53.15;96977.44;5072875;28;20503;-71
2021/03/21 03:42:14;;;;;;;8.35;5.70;;;;;;;0.91;54.73;96987.50;5073571;28;20048;-71
2021/03/21 03:45:16;;;;;;;8.13;5.47;;;;;;;0.93;55.03;96984.78;5027550;28;20040;-71
2021/03/21 03:48:01;;;;;;;8.43;6.63;;;;;;;0.94;54.08;96965.72;5068720;28;20461;-71
2021/03/21 03:50:53;;;;;;;8.15;5.85;;;;;;;0.94;54.13;96961.38;5073637;28;20036;-70
2021/03/21 03:53:19;;;;;;;8.43;5.57;;;;;;;0.96;53.47;96953.47;5061378;28;20067;-71
2021/03/21 03:55:56;;;;;;;7.03;5.05;;;;;;;0.92;53.79;96947.78;5073370;28;20457;-70
2021/03/21 03:58:25;;;;;;;6.60;5.47;;;;;;;0.92;53.66;96949.56;5073290;28;20397;-71
2021/03/21 04:01:04;;;;;;;8.23;5.70;;;;;;;0.90;54.03;96965.19;5073458;28;20036;-71
2021/03/21 04:03:36;;;;;;;7.57;5.70;;;;;;;0.89;53.61;96966.16;5073468;28;20036;-70
2021/03/21 04:06:13;;;;;;;7.95;5.68;;;;;;;0.89;54.31;96976.50;5073309;28;20044;-70
2021/03/21 04:09:02;;;;;;;10.48;6.60;;;;;;;0.88;54.08;96969.69;5073771;28;20037;-70
2021/03/21 04:11:53;;;;;;;6.82;5.82;;;;;;;0.86;54.11;96968.22;5064102;28;20060;-70
2021/03/21 04:14:33;;;;;;;9.30;6.30;;;;;;;0.86;54.30;96968.22;5065952;28;20416;-70
2021/03/21 04:17:10;;;;;;;8.95;6.00;;;;;;;0.85;54.46;96964.81;5072768;28;20048;-70
2021/03/21 04:19:40;;;;;;;8.63;6.53;;;;;;;0.88;54.09;96958.56;5072989;28;20059;-70
2021/03/21 04:22:32;;;;;;;8.18;5.78;;;;;;;0.89;54.93;96957.63;5073051;28;20048;-71
2021/03/21 04:25:01;;;;;;;9.02;6.22;;;;;;;0.90;54.28;96954.88;5073326;28;20032;-70
2021/03/21 04:27:39;;;;;;;7.65;5.57;;;;;;;0.91;54.63;96945.38;5073592;28;20050;-70
2021/03/21 04:30:11;;;;;;;10.50;6.05;;;;;;;0.93;54.21;96948.63;5073104;28;20392;-70
2021/03/21 04:32:50;;;;;;;10.18;6.97;;;;;;;0.95;54.83;96950.09;5077236;28;20028;-70
2021/03/21 04:35:27;;;;;;;8.55;6.70;;;;;;;0.96;55.08;96953.47;5067197;28;20036;-71
2021/03/21 04:38:06;;;;;;;9.23;6.60;;;;;;;0.98;55.25;96949.00;5063561;28;20040;-70
2021/03/21 04:40:34;;;;;;;7.57;6.15;;;;;;;0.99;54.58;96950.63;5075621;28;20074;-70
2021/03/21 04:43:24;;;;;;;7.13;5.65;;;;;;;0.96;55.21;96941.38;5075397;28;20428;-70
2021/03/21 04:45:58;;;;;;;9.27;6.47;;;;;;;0.95;54.89;96944.13;5076339;28;20473;-70
2021/03/21 04:48:26;;;;;;;8.32;6.03;;;;;;;0.93;54.53;96936.53;5077137;28;20041;-70
2021/03/21 04:50:59;;;;;;;8.80;6.25;;;;;;;0.94;55.04;96939.91;5076668;28;20402;-70
2021/03/21 04:53:37;;;;;;;9.50;6.55;;;;;;;0.91;55.45;96935.84;5077086;28;20043;-70
2021/03/21 04:56:13;;;;;;;8.35;6.60;;;;;;;0.90;55.36;96934.22;5076081;28;20052;-70
2021/03/21 04:58:48;;;;;;;9.95;6.70;;;;;;;0.88;55.28;96925.78;5067008;28;20036;-70
2021/03/21 05:01:25;;;;;;;8.40;6.63;;;;;;;0.86;55.73;96921.75;5076507;28;20111;-70
2021/03/21 05:03:55;;;;;;;10.55;6.88;;;;;;;0.80;55.75;96916.22;5076939;28;20029;-70
2021/03/21 05:06:38;;;;;;;8.18;6.68;;;;;;;0.73;56.13;96919.50;5061030;28;20037;-70
2021/03/21 05:09:11;;;;;;;10.15;6.72;;;;;;;0.62;56.11;96910.19;5076871;28;20043;-70
2021/03/21 05:11:41;;;;;;;9.43;6.57;;;;;;;0.54;55.58;96900.56;5076308;28;20048;-70
2021/03/21 05:14:19;;;;;;;9.93;7.07;;;;;;;0.48;56.92;96900.34;5076208;28;20047;-70
2021/03/21 05:17:10;;;;;;;9.27;7.10;;;;;;;0.44;57.14;96915.28;5076316;28;20464;-70
2021/03/21 05:19:57;;;;;;;9.82;7.25;;;;;;;0.43;56.96;96916.25;5075966;28;20049;-70
2021/03/21 05:22:31;;;;;;;8.27;6.07;;;;;;;0.42;56.97;96917.22;5076378;28;20040;-71
2021/03/21 05:25:15;;;;;;;7.30;5.75;;;;;;;0.42;56.93;96924.97;5075994;28;20037;-71
2021/03/21 05:27:43;;;;;;;8.13;5.90;;;;;;;0.43;56.11;96928.34;5075866;28;20037;-71
2021/03/21 05:30:25;;;;;;;9.95;6.50;;;;;;;0.46;57.45;96936.59;5066529;28;20047;-71
2021/03/21 05:32:52;;;;;;;7.25;5.80;;;;;;;0.51;56.34;96926.69;5076110;28;20396;-70
2021/03/21 05:35:26;;;;;;;8.98;5.93;;;;;;;0.55;56.40;96922.84;5075662;28;20048;-71
2021/03/21 05:37:58;;;;;;;9.15;5.93;;;;;;;0.60;56.72;96932.75;5076128;28;20044;-70
2021/03/21 05:40:30;;;;;;;7.40;5.68;;;;;;;0.66;56.46;96928.78;5075730;28;20028;-70
2021/03/21 05:43:24;;;;;;;11.35;6.35;;;;;;;0.71;57.42;96945.44;5074921;28;20067;-70
2021/03/21 05:46:12;;;;;;;7.15;5.50;;;;;;;0.74;56.80;96936.63;5075838;28;20068;-71
2021/03/21 05:48:53;;;;;;;9.00;5.85;;;;;;;0.80;57.33;96941.22;5075651;28;20413;-70
2021/03/21 05:51:48;;;;;;;7.30;5.22;;;;;;;0.86;57.47;96942.38;5061691;28;20029;-70
2021/03/21 05:54:52;;;;;;;7.30;5.35;;;;;;;0.89;57.02;96932.59;5075284;28;20036;-70
2021/03/21 05:57:40;;;;;;;6.93;5.28;;;;;;;0.93;57.12;96930.53;5075513;28;20028;-71
2021/03/21 06:00:19;;;;;;;9.23;6.13;;;;;;;0.93;56.42;96933.94;5075726;28;20032;-70
2021/03/21 06:03:03;;;;;;;8.13;6.15;;;;;;;0.89;56.32;96932.59;5075403;28;20040;-71
2021/03/21 06:06:07;;;;;;;8.93;6.10;;;;;;;0.87;56.52;96920.78;5074705;28;20397;-70
2021/03/21 06:09:01;;;;;;;7.78;5.72;;;;;;;0.82;56.72;96926.41;5060480;28;20049;-70
2021/03/21 06:11:41;;;;;;;9.30;5.85;;;;;;;0.76;56.61;96921.81;5075534;28;20049;-70
2021/03/21 06:14:31;;;;;;;9.90;6.13;;;;;;;0.75;56.69;96910.66;5074883;28;20049;-70
2021/03/21 06:17:14;;;;;;;7.00;5.82;;;;;;;0.74;56.62;96903.06;5062201;28;20055;-70
2021/03/21 06:20:11;;;;;;;8.75;6.13;;;;;;;0.72;57.80;96902.41;5074820;28;20248;-70
2021/03/21 06:23:02;;;;;;;10.98;7.30;;;;;;;0.70;58.05;96901.75;5075063;28;20028;-70
2021/03/21 06:25:43;;;;;;;12.85;8.02;;;;;;;0.68;58.21;96906.22;5074877;28;20029;-70
2021/03/21 06:28:31;;;;;;;7.65;6.13;;;;;;;0.64;58.49;96912.63;5075568;28;20028;-70
2021/03/21 06:31:45;;;;;;;7.95;6.28;;;;;;;0.62;58.76;96915.34;5074762;28;20437;-70
2021/03/21 06:34:31;;;;;;;8.25;6.30;;;;;;;0.60;58.87;96910.31;5037564;28;20593;-70
2021/03/21 06:36:59;;;;;;;8.93;5.80;;;;;;;0.63;57.56;96901.50;5074825;28;20028;-71
2021/03/21 06:39:59;;;;;;;8.10;5.85;;;;;;;0.67;59.26;96913.13;5074935;28;20044;-70
2021/03/21 06:42:39;;;;;;;7.15;5.40;;;;;;;0.71;58.96;96905.94;5066244;28;20051;-70
2021/03/21 06:45:08;;;;;;;8.80;5.53;;;;;;;0.75;58.11;96905.50;5074423;28;20036;-70
2021/03/21 06:47:40;;;;;;;7.63;5.85;;;;;;;0.80;58.18;96899.91;5074324;28;20044;-70
2021/03/21 06:50:34;;;;;;;7.35;5.68;;;;;;;0.86;58.85;96907.09;5074454;28;20029;-70
2021/03/21 06:53:09;;;;;;;8.90;5.77;;;;;;;0.93;58.60;96895.19;5074415;28;20020;-70
2021/03/21 06:55:56;;;;;;;8.70;5.45;;;;;;;0.93;58.67;96899.56;5074217;28;20029;-70
2021/03/21 06:58:50;;;;;;;7.55;5.03;;;;;;;0.87;58.48;96895.78;5059887;28;20035;-71
2021/03/21 07:01:28;;;;;;;9.70;5.65;;;;;;;0.87;58.31;96890.63;5074205;28;20036;-71
2021/03/21 07:04:12;;;;;;;7.22;5.72;;;;;;;0.85;58.48;96884.78;5074587;28;20056;-70
2021/03/21 07:06:57;;;;;;;8.75;6.03;;;;;;;0.87;58.05;96887.22;5059743;28;20449;-70
2021/03/21 07:09:42;;;;;;;;;;;;;;;0.89;58.74;96883.53;5074618;28;20152;-71
2021/03/21 07:12:39;;;;;;;10.15;5.47;;;;;;;0.90;58.59;96881.75;5074140;28;19917;-70
2021/03/21 07:15:39;;;;;;;9.43;6.18;;;;;;;0.89;58.81;96890.47;5065697;28;20056;-71
2021/03/21 07:18:08;;;;;;;8.63;5.20;;;;;;;0.93;58.29;96884.06;5061276;28;20039;-70
2021/03/21 07:21:14;;;;;;;7.78;4.85;;;;;;;1.01;59.05;96887.53;5073964;28;20523;-70
2021/03/21 07:24:05;;;;;;;8.35;5.35;;;;;;;1.11;58.97;96884.06;5073867;28;20024;-71
2021/03/21 07:26:32;;;;;;;9.70;4.97;;;;;;;1.20;58.21;96880.59;5073803;28;20028;-70
2021/03/21 07:29:36;;;;;;;6.32;5.00;;;;;;;1.25;58.59;96875.78;5073805;28;20036;-70
2021/03/21 07:32:02;;;;;;;8.50;5.13;;;;;;;1.26;58.16;96872.25;5066933;28;20040;-71
2021/03/21 07:34:50;;;;;;;5.82;4.50;;;;;;;1.28;58.20;96872.09;5073810;28;20041;-70
2021/03/21 07:37:53;;;;;;;7.05;5.75;;;;;;;1.15;58.33;96882.81;5073605;28;20420;-71
2021/03/21 07:40:32;;;;;;;6.78;5.10;;;;;;;1.08;57.98;96871.44;5073308;28;20469;-71
2021/03/21 07:43:22;;;;;;;6.65;4.80;;;;;;;1.11;58.65;96879.69;5073794;28;20036;-70
2021/03/21 07:46:32;;;;;;;7.68;4.88;;;;;;;1.15;58.85;96869.88;5061680;28;20028;-70
2021/03/21 07:49:35;;;;;;;6.22;4.45;;;;;;;1.27;59.39;96888.56;5056317;28;20067;-71
2021/03/21 07:52:21;;;;;;;8.13;4.53;;;;;;;1.35;59.48;96883.47;5073281;28;20036;-70
2021/03/21 07:54:50;;;;;;;6.93;4.70;;;;;;;1.44;58.58;96882.56;5073317;28;20029;-70
2021/03/21 07:57:26;;;;;;;6.53;4.47;;;;;;;1.52;58.39;96892.16;5073421;28;20033;-71
2021/03/21 07:59:54;;;;;;;6.47;4.63;;;;;;;1.58;58.33;96889.00;5057840;28;20041;-70
2021/03/21 08:02:23;;;;;;;7.85;4.80;;;;;;;1.60;58.21;96880.13;5073196;28;20053;-71
2021/03/21 08:04:54;;;;;;;5.13;4.15;;;;;;;1.60;57.98;96881.91;5072361;28;20500;-70
2021/03/21 08:07:32;;;;;;;5.13;4.38;;;;;;;1.62;58.03;96872.22;5073407;28;20037;-71
2021/03/21 08:09:59;;;;;;;6.57;4.28;;;;;;;1.63;58.27;96864.28;5073129;28;20040;-71
2021/03/21 08:12:48;;;;;;;5.68;4.43;;;;;;;1.66;58.20;96865.78;5072265;28;20376;-70
2021/03/21 08:15:24;;;;;;;4.97;4.28;;;;;;;1.66;57.54;96859.78;5072929;28;20056;-70
2021/03/21 08:18:04;;;;;;;5.68;4.85;;;;;;;1.62;57.65;96865.25;5073317;28;20047;-70
2021/03/21 08:20:35;;;;;;;5.95;4.43;;;;;;;1.60;58.04;96871.56;5063755;28;20024;-70
2021/03/21 08:23:13;;;;;;;5.95;4.38;;;;;;;1.62;58.43;96872.22;5073096;28;20451;-71
2021/03/21 08:25:40;;;;;;;5.57;4.35;;;;;;;1.67;58.26;96864.00;5073460;28;20040;-70
2021/03/21 08:28:11;;;;;;;5.35;4.20;;;;;;;1.73;58.22;96858.22;5073028;28;20036;-70
2021/03/21 08:30:48;;;;;;;6.47;3.92;;;;;;;1.80;58.04;96856.63;5073184;28;20044;-70
2021/03/21 08:33:34;;;;;;;4.22;3.83;;;;;;;1.86;57.88;96860.41;5072677;28;20040;-71
2021/03/21 08:36:26;;;;;;;7.03;4.78;;;;;;;1.88;57.95;96854.09;5071812;28;20107;-70
2021/03/21 08:38:55;;;;;;;5.68;4.70;;;;;;;1.90;58.00;96859.94;5072773;28;20064;-70
2021/03/21 08:41:23;;;;;;;6.05;4.63;;;;;;;1.95;58.12;96851.72;5073374;28;20028;-70
2021/03/21 08:43:58;;;;;;;6.50;4.32;;;;;;;1.98;57.69;96831.53;5073078;28;20047;-70
2021/03/21 08:46:25;;;;;;;5.15;4.60;;;;;;;1.99;57.96;96834.91;5072954;28;20033;-70
2021/03/21 08:49:21;;;;;;;6.88;4.30;;;;;;;1.99;58.18;96840.09;5072850;28;20040;-71
2021/03/21 08:51:47;;;;;;;6.00;4.85;;;;;;;2.02;58.17;96847.56;5060236;28;20032;-70
2021/03/21 08:54:28;;;;;;;5.88;4.80;;;;;;;2.04;57.76;96845.63;5072841;28;20035;-71
2021/03/21 08:57:09;;;;;;;7.80;4.72;;;;;;;2.07;57.95;96854.84;5072973;28;20047;-70
2021/03/21 08:59:46;;;;;;;7.43;4.45;;;;;;;2.09;58.13;96855.50;5072466;28;20032;-71
2021/03/21 09:02:16;;;;;;;6.85;4.97;;;;;;;2.07;57.55;96841.94;5073003;28;20515;-71
2021/03/21 09:05:07;;;;;;;9.07;4.93;;;;;;;2.08;57.89;96835.78;5072693;28;20036;-70
2021/03/21 09:07:39;;;;;;;7.50;4.55;;;;;;;2.13;57.71;96829.16;5066097;28;20041;-70
2021/03/21 09:10:11;;;;;;;8.48;4.68;;;;;;;2.12;57.15;96824.97;5072785;28;20457;-70
2021/03/21 09:12:40;;;;;;;6.97;5.03;;;;;;;2.11;57.64;96814.78;5072353;28;20056;-70
2021/03/21 09:15:22;;;;;;;5.80;4.03;;;;;;;2.17;56.51;96811.56;5072491;28;20040;-70
2021/03/21 09:18:10;;;;;;;7.35;5.38;;;;;;;2.24;57.05;96809.97;5073254;28;20040;-70
2021/03/21 09:20:40;;;;;;;7.15;3.92;;;;;;;2.34;57.25;96815.03;5075909;28;20473;-70
2021/03/21 09:23:40;;;;;;;3.88;3.45;;;;;;;2.43;55.57;96801.94;5076239;28;20048;-71
2021/03/21 09:26:12;;;;;;;3.70;3.28;;;;;;;2.52;55.94;96804.56;5067089;28;20041;-70
2021/03/21 09:28:44;;;;;;;6.75;3.85;;;;;;;2.61;56.70;96811.38;5076093;28;20037;-71
2021/03/21 09:31:13;;;;;;;5.55;3.55;;;;;;;2.67;56.22;96812.50;5075470;28;20488;-71
2021/03/21 09:34:05;;;;;;;6.15;4.10;;;;;;;2.70;55.04;96807.03;5076433;28;20099;-70
2021/03/21 09:36:42;;;;;;;5.63;4.05;;;;;;;2.75;54.80;96802.16;5057285;28;20040;-70
2021/03/21 09:39:14;;;;;;;4.68;3.90;;;;;;;2.79;55.79;96800.88;5075846;28;20405;-71
2021/03/21 09:41:41;;;;;;;5.13;3.83;;;;;;;2.83;56.11;96799.59;5076200;28;20040;-71
2021/03/21 09:44:55;;;;;;;7.57;4.30;;;;;;;2.83;53.77;96797.00;5075876;28;20397;-71
2021/03/21 09:47:37;;;;;;;7.30;4.47;;;;;;;2.81;53.85;96794.59;5043235;28;20424;-70
2021/03/21 09:50:15;;;;;;;7.10;4.53;;;;;;;2.82;54.08;96814.31;5073923;28;20059;-71
2021/03/21 09:52:44;;;;;;;6.63;4.15;;;;;;;2.83;55.50;96821.16;5076172;28;20036;-71
2021/03/21 09:55:13;;;;;;;7.03;4.38;;;;;;;2.84;54.81;96807.22;5075614;28;20040;-71
2021/03/21 09:58:16;;;;;;;8.10;4.63;;;;;;;2.89;53.58;96800.75;5075483;28;20435;-70
2021/03/21 10:00:48;;;;;;;6.22;4.05;;;;;;;2.96;54.64;96812.06;5075874;28;20459;-71
2021/03/21 10:03:33;;;;;;;5.63;4.25;;;;;;;3.02;53.39;96795.88;5061147;28;20028;-71
2021/03/21 10:06:15;;;;;;;4.35;3.58;;;;;;;3.10;53.58;96798.47;5075054;28;20036;-71
2021/03/21 10:08:44;;;;;;;7.75;3.78;;;;;;;3.17;53.95;96794.28;5075185;28;20053;-71
2021/03/21 10:11:20;;;;;;;5.95;3.92;;;;;;;3.26;53.51;96797.69;5075466;28;20053;-71
2021/03/21 10:13:51;;;;;;;4.68;3.95;;;;;;;3.33;54.13;96801.22;5067687;28;20059;-71
2021/03/21 10:16:19;;;;;;;5.63;4.32;;;;;;;3.40;54.06;96797.03;5075204;28;20032;-71
2021/03/21 10:18:48;;;;;;;5.35;3.72;;;;;;;3.48;53.17;96800.56;5075000;28;20404;-71
2021/03/21 10:21:41;;;;;;;4.72;3.85;;;;;;;3.54;50.13;96781.75;5075010;28;20032;-71
2021/03/21 10:24:13;;;;;;;6.68;4.60;;;;;;;3.57;53.31;96797.81;5073575;28;20041;-71
2021/03/21 10:27:14;;;;;;;6.22;4.18;;;;;;;3.64;50.00;96772.00;5075112;28;20488;-71
2021/03/21 10:29:42;;;;;;;6.28;4.35;;;;;;;3.70;52.82;96799.88;5074496;28;20052;-71
2021/03/21 10:32:23;;;;;;;6.72;4.25;;;;;;;3.80;50.66;96784.13;5075042;28;20044;-71
2021/03/21 10:34:50;;;;;;;6.53;4.72;;;;;;;3.90;52.60;96792.53;5075205;28;20040;-70
2021/03/21 10:37:41;;;;;;;4.57;3.92;;;;;;;3.98;49.87;96771.72;5074675;28;20037;-71
2021/03/21 10:40:23;;;;;;;6.75;4.20;;;;;;;4.08;51.30;96774.16;5074806;28;20029;-71
2021/03/21 10:42:56;;;;;;;6.10;4.72;;;;;;;4.17;49.87;96760.13;5075267;28;20040;-71
2021/03/21 10:45:35;;;;;;;5.57;4.00;;;;;;;4.29;49.30;96765.78;5074549;28;20032;-71
2021/03/21 10:48:04;;;;;;;7.22;4.85;;;;;;;4.39;50.90;96770.72;5074498;28;20469;-71
2021/03/21 10:50:30;;;;;;;6.15;4.47;;;;;;;4.48;50.90;96774.91;5074735;28;20035;-71
2021/03/21 10:53:21;;;;;;;9.15;5.50;;;;;;;4.50;48.75;96753.97;5074494;28;20047;-71
2021/03/21 10:56:06;;;;;;;7.13;5.43;;;;;;;4.52;48.52;96745.03;5074108;28;20468;-71
2021/03/21 10:58:35;;;;;;;5.95;5.00;;;;;;;4.57;50.42;96760.09;5074245;28;20040;-71
2021/03/21 11:01:17;;;;;;;6.75;5.03;;;;;;;4.60;50.78;96762.34;5074941;28;20036;-71
2021/03/21 11:03:57;;;;;;;5.63;4.88;;;;;;;4.71;49.95;96755.97;5074098;28;20044;-71
2021/03/21 11:06:31;;;;;;;7.97;5.43;;;;;;;4.76;51.64;96759.63;5074101;28;20045;-71
2021/03/21 11:09:16;;;;;;;6.40;5.15;;;;;;;4.85;50.83;96757.78;5074770;28;20047;-71
2021/03/21 11:11:46;;;;;;;8.05;5.70;;;;;;;4.82;50.62;96750.34;5073646;28;20073;-71
2021/03/21 11:14:29;;;;;;;8.25;6.43;;;;;;;4.74;51.98;96755.59;5074079;28;20044;-71
2021/03/21 11:17:00;;;;;;;9.90;6.47;;;;;;;4.75;51.62;96757.22;5074216;28;20045;-71
2021/03/21 11:19:34;;;;;;;8.68;6.05;;;;;;;4.80;51.92;96754.91;5074394;28;20033;-71
2021/03/21 11:22:22;;;;;;;9.60;7.13;;;;;;;4.88;51.65;96757.44;5073864;28;20404;-71
2021/03/21 11:24:49;;;;;;;8.88;7.20;;;;;;;4.96;51.32;96752.19;5073726;28;20492;-71
2021/03/21 11:27:27;;;;;;;10.57;8.27;;;;;;;5.01;51.40;96736.88;5074000;28;20040;-71
2021/03/21 11:29:53;;;;;;;9.85;7.97;;;;;;;5.09;51.22;96742.00;5073634;28;20044;-71
2021/03/21 11:32:26;;;;;;;11.95;8.02;;;;;;;5.26;51.68;96741.84;5073200;28;20049;-71
2021/03/21 11:35:04;;;;;;;10.50;8.20;;;;;;;5.39;51.64;96739.44;5074010;28;20039;-72
2021/03/21 11:37:34;;;;;;;17.10;10.85;;;;;;;5.45;51.07;96728.34;5073587;28;20499;-71
2021/03/21 11:40:12;;;;;;;11.70;8.27;;;;;;;5.42;50.71;96726.09;5071567;28;20033;-71
2021/03/21 11:42:42;;;;;;;9.65;8.27;;;;;;;5.37;50.83;96717.22;5073906;28;20036;-71
2021/03/21 11:45:24;;;;;;;11.98;9.43;;;;;;;5.39;51.34;96731.66;5073417;28;20039;-71
2021/03/21 11:47:57;;;;;;;9.52;8.05;;;;;;;5.34;50.82;96726.19;5073679;28;20366;-72
2021/03/21 11:50:32;;;;;;;10.23;7.82;;;;;;;5.36;51.10;96723.41;5073528;28;20032;-71
2021/03/21 11:53:01;;;;;;;9.15;7.60;;;;;;;5.35;51.21;96722.56;5073363;28;20032;-71
2021/03/21 11:55:31;;;;;;;10.20;7.40;;;;;;;5.38;51.30;96722.25;5073132;28;20032;-71
2021/03/21 11:58:01;;;;;;;9.52;7.18;;;;;;;5.42;51.26;96720.91;5073542;28;20055;-71
2021/03/21 12:00:34;;;;;;;8.93;7.88;;;;;;;5.51;51.23;96715.63;5072636;28;20040;-71
2021/03/21 12:03:12;;;;;;;9.88;7.75;;;;;;;5.53;51.31;96714.44;5072938;28;20041;-71
2021/03/21 12:05:41;;;;;;;8.52;7.30;;;;;;;5.55;51.68;96715.06;5073694;28;20067;-71
2021/03/21 12:08:13;;;;;;;12.13;7.38;;;;;;;5.59;50.86;96713.72;5073175;28;20048;-71
2021/03/21 12:10:42;;;;;;;9.63;7.78;;;;;;;5.61;51.55;96718.75;5073626;28;20416;-70
2021/03/21 12:13:23;;;;;;;9.05;7.97;;;;;;;5.62;51.80;96722.97;5073018;28;20496;-71
2021/03/21 12:15:51;;;;;;;9.07;7.30;;;;;;;5.61;51.52;96719.56;5072956;28;20469;-71
2021/03/21 12:18:20;;;;;;;9.40;7.28;;;;;;;5.61;51.34;96721.38;5073247;28;20043;-71
2021/03/21 12:20:48;;;;;;;8.93;7.25;;;;;;;5.63;51.63;96722.78;5073160;28;20036;-71
2021/03/21 12:23:43;;;;;;;8.57;7.07;;;;;;;5.63;51.75;96727.19;5072578;28;20036;-71
2021/03/21 12:26:14;;;;;;;10.15;7.57;;;;;;;5.65;52.06;96713.00;5069162;28;20044;-71
2021/03/21 12:28:53;;;;;;;9.07;6.72;;;;;;;5.64;52.34;96713.97;5073257;28;20028;-71